sensor_id;sensor_type;location;lat;lon;timestamp;temperature;humidity
32400;DHT22;45045;45.440;9.178;2023-02-17T00:01:23;14.50;93.10
32400;DHT22;45045;45.440;9.178;2023-02-17T00:03:50;14.40;93.60
32400;DHT22;45045;45.440;9.178;2023-02-17T00:06:18;14.30;94.00
32400;DHT22;45045;45.440;9.178;2023-02-17T00:08:45;14.20;94.40
32400;DHT22;45045;45.440;9.178;2023-02-17T00:11:11;14.20;94.50
32400;DHT22;45045;45.440;9.178;2023-02-17T00:13:37;14.10;94.70
32400;DHT22;45045;45.440;9.178;2023-02-17T00:16:12;14.10;95.00
32400;DHT22;45045;45.440;9.178;2023-02-17T00:18:40;14.10;95.10
32400;DHT22;45045;45.440;9.178;2023-02-17T00:21:20;14.10;95.30
32400;DHT22;45045;45.440;9.178;2023-02-17T00:23:46;14.10;95.30
32400;DHT22;45045;45.440;9.178;2023-02-17T00:26:15;14.00;95.20
32400;DHT22;45045;45.440;9.178;2023-02-17T00:28:40;14.00;95.30
32400;DHT22;45045;45.440;9.178;2023-02-17T00:31:13;13.90;95.50
32400;DHT22;45045;45.440;9.178;2023-02-17T00:33:39;13.90;95.50
32400;DHT22;45045;45.440;9.178;2023-02-17T00:36:07;13.80;95.90
32400;DHT22;45045;45.440;9.178;2023-02-17T00:38:32;13.80;96.10
32400;DHT22;45045;45.440;9.178;2023-02-17T00:40:58;13.80;96.10
32400;DHT22;45045;45.440;9.178;2023-02-17T00:43:24;13.70;95.90
32400;DHT22;45045;45.440;9.178;2023-02-17T00:45:50;13.70;96.00
32400;DHT22;45045;45.440;9.178;2023-02-17T00:48:16;13.70;96.30
32400;DHT22;45045;45.440;9.178;2023-02-17T00:50:42;13.70;96.50
32400;DHT22;45045;45.440;9.178;2023-02-17T00:53:07;13.70;96.60
32400;DHT22;45045;45.440;9.178;2023-02-17T00:55:33;13.70;96.60
32400;DHT22;45045;45.440;9.178;2023-02-17T00:57:59;13.70;97.60
32400;DHT22;45045;45.440;9.178;2023-02-17T01:00:25;13.70;97.90
32400;DHT22;45045;45.440;9.178;2023-02-17T01:02:50;13.70;98.70
32400;DHT22;45045;45.440;9.178;2023-02-17T01:05:16;13.70;98.90
32400;DHT22;45045;45.440;9.178;2023-02-17T01:07:41;13.70;98.60
32400;DHT22;45045;45.440;9.178;2023-02-17T01:10:08;13.60;97.80
32400;DHT22;45045;45.440;9.178;2023-02-17T01:12:34;13.60;97.90
32400;DHT22;45045;45.440;9.178;2023-02-17T01:15:01;13.60;97.50
32400;DHT22;45045;45.440;9.178;2023-02-17T01:17:26;13.60;98.10
32400;DHT22;45045;45.440;9.178;2023-02-17T01:19:52;13.60;97.50
32400;DHT22;45045;45.440;9.178;2023-02-17T01:22:18;13.60;97.60
32400;DHT22;45045;45.440;9.178;2023-02-17T01:24:43;13.60;97.80
32400;DHT22;45045;45.440;9.178;2023-02-17T01:27:09;13.50;97.90
32400;DHT22;45045;45.440;9.178;2023-02-17T01:29:34;13.50;97.90
32400;DHT22;45045;45.440;9.178;2023-02-17T01:32:00;13.50;97.90
32400;DHT22;45045;45.440;9.178;2023-02-17T01:34:26;13.40;98.00
32400;DHT22;45045;45.440;9.178;2023-02-17T01:36:51;13.50;98.00
32400;DHT22;45045;45.440;9.178;2023-02-17T01:39:17;13.50;98.00
32400;DHT22;45045;45.440;9.178;2023-02-17T01:41:44;13.40;98.00
32400;DHT22;45045;45.440;9.178;2023-02-17T01:44:19;13.40;98.30
32400;DHT22;45045;45.440;9.178;2023-02-17T01:46:48;13.30;98.40
32400;DHT22;45045;45.440;9.178;2023-02-17T01:49:46;13.30;98.60
32400;DHT22;45045;45.440;9.178;2023-02-17T01:52:22;13.30;98.50
32400;DHT22;45045;45.440;9.178;2023-02-17T01:54:57;13.20;98.70
32400;DHT22;45045;45.440;9.178;2023-02-17T01:57:28;13.20;98.70
32400;DHT22;45045;45.440;9.178;2023-02-17T01:59:55;13.20;98.70
32400;DHT22;45045;45.440;9.178;2023-02-17T02:02:21;13.20;98.70
32400;DHT22;45045;45.440;9.178;2023-02-17T02:04:50;13.30;98.60
32400;DHT22;45045;45.440;9.178;2023-02-17T02:07:26;13.30;98.60
32400;DHT22;45045;45.440;9.178;2023-02-17T02:09:55;13.20;98.70
32400;DHT22;45045;45.440;9.178;2023-02-17T02:14:48;13.20;98.70
32400;DHT22;45045;45.440;9.178;2023-02-17T02:30:58;13.10;99.10
32400;DHT22;45045;45.440;9.178;2023-02-17T02:36:30;13.10;99.40
32400;DHT22;45045;45.440;9.178;2023-02-17T02:39:15;13.10;99.30
32400;DHT22;45045;45.440;9.178;2023-02-17T02:42:01;13.10;99.30
32400;DHT22;45045;45.440;9.178;2023-02-17T02:44:27;13.10;99.20
32400;DHT22;45045;45.440;9.178;2023-02-17T02:46:58;13.10;99.20
32400;DHT22;45045;45.440;9.178;2023-02-17T02:49:24;13.10;99.40
32400;DHT22;45045;45.440;9.178;2023-02-17T02:52:14;13.00;99.60
32400;DHT22;45045;45.440;9.178;2023-02-17T02:57:43;13.00;99.70
32400;DHT22;45045;45.440;9.178;2023-02-17T03:00:38;12.90;99.70
32400;DHT22;45045;45.440;9.178;2023-02-17T03:08:52;12.90;99.70
32400;DHT22;45045;45.440;9.178;2023-02-17T03:11:23;12.90;99.80
32400;DHT22;45045;45.440;9.178;2023-02-17T03:14:07;12.90;99.90
32400;DHT22;45045;45.440;9.178;2023-02-17T03:16:35;12.80;99.80
32400;DHT22;45045;45.440;9.178;2023-02-17T03:19:02;12.80;99.90
32400;DHT22;45045;45.440;9.178;2023-02-17T03:24:23;12.70;99.90
32400;DHT22;45045;45.440;9.178;2023-02-17T03:26:49;12.70;99.90
32400;DHT22;45045;45.440;9.178;2023-02-17T03:29:14;12.70;99.90
32400;DHT22;45045;45.440;9.178;2023-02-17T03:31:40;12.70;99.90
32400;DHT22;45045;45.440;9.178;2023-02-17T03:34:07;12.70;99.90
32400;DHT22;45045;45.440;9.178;2023-02-17T03:36:33;12.70;99.90
32400;DHT22;45045;45.440;9.178;2023-02-17T03:38:58;12.70;99.90
32400;DHT22;45045;45.440;9.178;2023-02-17T03:41:25;12.70;99.90
32400;DHT22;45045;45.440;9.178;2023-02-17T03:43:50;12.70;99.90
32400;DHT22;45045;45.440;9.178;2023-02-17T03:46:17;12.70;99.90
32400;DHT22;45045;45.440;9.178;2023-02-17T03:48:43;12.60;99.90
32400;DHT22;45045;45.440;9.178;2023-02-17T03:53:35;12.50;99.90
32400;DHT22;45045;45.440;9.178;2023-02-17T03:56:01;12.50;99.90
32400;DHT22;45045;45.440;9.178;2023-02-17T03:58:27;12.50;99.90
32400;DHT22;45045;45.440;9.178;2023-02-17T04:00:52;12.50;99.90
32400;DHT22;45045;45.440;9.178;2023-02-17T04:03:18;12.50;99.90
32400;DHT22;45045;45.440;9.178;2023-02-17T04:05:44;12.50;99.90
32400;DHT22;45045;45.440;9.178;2023-02-17T04:08:09;12.40;99.90
32400;DHT22;45045;45.440;9.178;2023-02-17T04:10:35;12.40;99.90
32400;DHT22;45045;45.440;9.178;2023-02-17T04:13:00;12.40;99.90
32400;DHT22;45045;45.440;9.178;2023-02-17T04:15:26;12.20;99.90
32400;DHT22;45045;45.440;9.178;2023-02-17T04:17:52;12.20;99.90
32400;DHT22;45045;45.440;9.178;2023-02-17T04:20:17;12.20;99.90
32400;DHT22;45045;45.440;9.178;2023-02-17T04:22:43;12.10;99.90
32400;DHT22;45045;45.440;9.178;2023-02-17T04:25:10;12.10;99.90
32400;DHT22;45045;45.440;9.178;2023-02-17T04:27:36;12.10;99.90
32400;DHT22;45045;45.440;9.178;2023-02-17T04:30:02;12.10;99.90
32400;DHT22;45045;45.440;9.178;2023-02-17T04:32:28;12.10;99.90
32400;DHT22;45045;45.440;9.178;2023-02-17T04:34:53;12.10;99.90
32400;DHT22;45045;45.440;9.178;2023-02-17T04:37:19;12.10;99.90
32400;DHT22;45045;45.440;9.178;2023-02-17T04:39:44;12.00;99.90
32400;DHT22;45045;45.440;9.178;2023-02-17T04:42:10;12.00;99.90
32400;DHT22;45045;45.440;9.178;2023-02-17T04:44:36;11.90;99.90
32400;DHT22;45045;45.440;9.178;2023-02-17T04:47:01;11.80;99.90
32400;DHT22;45045;45.440;9.178;2023-02-17T04:49:27;11.80;99.90
32400;DHT22;45045;45.440;9.178;2023-02-17T04:51:52;11.80;99.90
32400;DHT22;45045;45.440;9.178;2023-02-17T04:54:18;11.70;99.90
32400;DHT22;45045;45.440;9.178;2023-02-17T04:56:44;11.70;99.90
32400;DHT22;45045;45.440;9.178;2023-02-17T04:59:09;11.60;99.90
32400;DHT22;45045;45.440;9.178;2023-02-17T05:01:35;11.50;99.90
32400;DHT22;45045;45.440;9.178;2023-02-17T05:04:00;11.50;99.90
32400;DHT22;45045;45.440;9.178;2023-02-17T05:06:26;11.50;99.90
32400;DHT22;45045;45.440;9.178;2023-02-17T05:08:52;11.50;99.90
32400;DHT22;45045;45.440;9.178;2023-02-17T05:11:18;11.40;99.90
32400;DHT22;45045;45.440;9.178;2023-02-17T05:13:44;11.40;99.90
32400;DHT22;45045;45.440;9.178;2023-02-17T05:16:09;11.30;99.90
32400;DHT22;45045;45.440;9.178;2023-02-17T05:18:35;11.30;99.90
32400;DHT22;45045;45.440;9.178;2023-02-17T05:21:00;11.20;99.90
32400;DHT22;45045;45.440;9.178;2023-02-17T05:23:26;11.20;99.90
32400;DHT22;45045;45.440;9.178;2023-02-17T05:25:52;11.20;99.90
32400;DHT22;45045;45.440;9.178;2023-02-17T05:28:17;11.20;99.90
32400;DHT22;45045;45.440;9.178;2023-02-17T05:30:43;11.20;99.90
32400;DHT22;45045;45.440;9.178;2023-02-17T05:33:08;11.20;99.90
32400;DHT22;45045;45.440;9.178;2023-02-17T05:35:34;11.10;99.90
32400;DHT22;45045;45.440;9.178;2023-02-17T05:38:00;11.10;99.90
32400;DHT22;45045;45.440;9.178;2023-02-17T05:40:26;11.00;99.90
32400;DHT22;45045;45.440;9.178;2023-02-17T05:42:52;11.00;99.90
32400;DHT22;45045;45.440;9.178;2023-02-17T05:45:17;11.00;99.90
32400;DHT22;45045;45.440;9.178;2023-02-17T05:47:43;10.90;99.90
32400;DHT22;45045;45.440;9.178;2023-02-17T05:50:09;10.90;99.90
32400;DHT22;45045;45.440;9.178;2023-02-17T05:52:34;10.80;99.90
32400;DHT22;45045;45.440;9.178;2023-02-17T05:55:00;10.90;99.90
32400;DHT22;45045;45.440;9.178;2023-02-17T05:57:29;10.90;99.90
32400;DHT22;45045;45.440;9.178;2023-02-17T05:59:55;10.90;99.90
32400;DHT22;45045;45.440;9.178;2023-02-17T06:02:20;10.80;99.90
32400;DHT22;45045;45.440;9.178;2023-02-17T06:04:46;10.90;99.90
32400;DHT22;45045;45.440;9.178;2023-02-17T06:07:11;10.70;99.90
32400;DHT22;45045;45.440;9.178;2023-02-17T06:09:37;10.70;99.90
32400;DHT22;45045;45.440;9.178;2023-02-17T06:12:03;10.80;99.90
32400;DHT22;45045;45.440;9.178;2023-02-17T06:14:29;10.70;99.90
32400;DHT22;45045;45.440;9.178;2023-02-17T06:16:55;10.70;99.90
32400;DHT22;45045;45.440;9.178;2023-02-17T06:19:22;10.80;99.90
32400;DHT22;45045;45.440;9.178;2023-02-17T06:21:48;10.60;99.90
32400;DHT22;45045;45.440;9.178;2023-02-17T06:24:14;10.50;99.90
32400;DHT22;45045;45.440;9.178;2023-02-17T06:26:39;10.50;99.90
32400;DHT22;45045;45.440;9.178;2023-02-17T06:29:05;10.50;99.90
32400;DHT22;45045;45.440;9.178;2023-02-17T06:31:31;10.40;99.90
32400;DHT22;45045;45.440;9.178;2023-02-17T06:33:57;10.50;99.90
32400;DHT22;45045;45.440;9.178;2023-02-17T06:36:23;10.40;99.90
32400;DHT22;45045;45.440;9.178;2023-02-17T06:38:48;10.30;99.90
32400;DHT22;45045;45.440;9.178;2023-02-17T06:41:14;10.30;99.90
32400;DHT22;45045;45.440;9.178;2023-02-17T06:43:40;10.10;99.90
32400;DHT22;45045;45.440;9.178;2023-02-17T06:46:05;10.10;99.90
32400;DHT22;45045;45.440;9.178;2023-02-17T06:48:31;10.20;99.90
32400;DHT22;45045;45.440;9.178;2023-02-17T06:50:59;11.50;99.90
32400;DHT22;45045;45.440;9.178;2023-02-17T06:53:24;11.80;99.90
32400;DHT22;45045;45.440;9.178;2023-02-17T06:55:50;11.30;99.90
32400;DHT22;45045;45.440;9.178;2023-02-17T06:58:16;11.10;99.90
32400;DHT22;45045;45.440;9.178;2023-02-17T07:00:41;12.20;99.90
32400;DHT22;45045;45.440;9.178;2023-02-17T07:03:07;12.30;99.90
32400;DHT22;45045;45.440;9.178;2023-02-17T07:05:36;11.60;99.90
32400;DHT22;45045;45.440;9.178;2023-02-17T07:08:03;11.10;99.90
32400;DHT22;45045;45.440;9.178;2023-02-17T07:10:29;10.90;99.90
32400;DHT22;45045;45.440;9.178;2023-02-17T07:12:55;10.70;99.90
32400;DHT22;45045;45.440;9.178;2023-02-17T07:15:20;10.60;99.90
32400;DHT22;45045;45.440;9.178;2023-02-17T07:17:46;10.50;99.90
32400;DHT22;45045;45.440;9.178;2023-02-17T07:20:12;10.60;99.90
32400;DHT22;45045;45.440;9.178;2023-02-17T07:22:38;10.80;99.90
32400;DHT22;45045;45.440;9.178;2023-02-17T07:25:04;11.00;99.90
32400;DHT22;45045;45.440;9.178;2023-02-17T07:27:30;11.00;99.90
32400;DHT22;45045;45.440;9.178;2023-02-17T07:29:57;11.00;99.90
32400;DHT22;45045;45.440;9.178;2023-02-17T07:32:22;11.00;99.90
32400;DHT22;45045;45.440;9.178;2023-02-17T07:34:48;11.00;99.90
32400;DHT22;45045;45.440;9.178;2023-02-17T07:37:14;11.10;99.90
32400;DHT22;45045;45.440;9.178;2023-02-17T07:39:39;11.30;99.90
32400;DHT22;45045;45.440;9.178;2023-02-17T07:42:05;11.40;99.90
32400;DHT22;45045;45.440;9.178;2023-02-17T07:44:31;11.50;99.90
32400;DHT22;45045;45.440;9.178;2023-02-17T07:46:57;11.50;99.90
32400;DHT22;45045;45.440;9.178;2023-02-17T07:49:23;11.60;99.90
32400;DHT22;45045;45.440;9.178;2023-02-17T07:51:49;11.70;99.90
32400;DHT22;45045;45.440;9.178;2023-02-17T07:54:14;11.80;99.90
32400;DHT22;45045;45.440;9.178;2023-02-17T07:56:40;11.90;99.90
32400;DHT22;45045;45.440;9.178;2023-02-17T07:59:10;11.90;99.90
32400;DHT22;45045;45.440;9.178;2023-02-17T08:01:36;12.00;99.90
32400;DHT22;45045;45.440;9.178;2023-02-17T08:04:03;12.80;99.90
32400;DHT22;45045;45.440;9.178;2023-02-17T08:06:28;13.10;99.90
32400;DHT22;45045;45.440;9.178;2023-02-17T08:08:54;13.70;99.90
32400;DHT22;45045;45.440;9.178;2023-02-17T08:11:39;13.90;99.90
32400;DHT22;45045;45.440;9.178;2023-02-17T08:14:26;14.30;99.90
32400;DHT22;45045;45.440;9.178;2023-02-17T08:16:53;14.50;99.70
32400;DHT22;45045;45.440;9.178;2023-02-17T08:19:19;14.50;97.90
32400;DHT22;45045;45.440;9.178;2023-02-17T08:21:44;14.70;99.90
32400;DHT22;45045;45.440;9.178;2023-02-17T08:24:10;15.00;99.90
32400;DHT22;45045;45.440;9.178;2023-02-17T08:26:37;14.90;97.30
32400;DHT22;45045;45.440;9.178;2023-02-17T08:29:03;15.00;98.70
32400;DHT22;45045;45.440;9.178;2023-02-17T08:31:33;14.80;98.80
32400;DHT22;45045;45.440;9.178;2023-02-17T08:34:02;14.80;98.40
32400;DHT22;45045;45.440;9.178;2023-02-17T08:36:28;14.90;98.20
32400;DHT22;45045;45.440;9.178;2023-02-17T08:38:54;14.90;98.00
32400;DHT22;45045;45.440;9.178;2023-02-17T08:41:28;14.90;99.20
32400;DHT22;45045;45.440;9.178;2023-02-17T08:43:55;14.90;96.90
32400;DHT22;45045;45.440;9.178;2023-02-17T08:46:21;15.30;99.80
32400;DHT22;45045;45.440;9.178;2023-02-17T08:48:47;15.40;99.20
32400;DHT22;45045;45.440;9.178;2023-02-17T08:51:14;15.20;96.50
32400;DHT22;45045;45.440;9.178;2023-02-17T08:53:41;15.50;98.90
32400;DHT22;45045;45.440;9.178;2023-02-17T08:56:07;15.60;97.60
32400;DHT22;45045;45.440;9.178;2023-02-17T08:58:34;15.70;97.30
32400;DHT22;45045;45.440;9.178;2023-02-17T09:01:00;15.70;96.90
32400;DHT22;45045;45.440;9.178;2023-02-17T09:03:26;15.60;95.60
32400;DHT22;45045;45.440;9.178;2023-02-17T09:05:56;15.30;96.00
32400;DHT22;45045;45.440;9.178;2023-02-17T09:08:23;15.40;95.60
32400;DHT22;45045;45.440;9.178;2023-02-17T09:10:50;15.20;96.10
32400;DHT22;45045;45.440;9.178;2023-02-17T09:13:16;15.40;96.50
32400;DHT22;45045;45.440;9.178;2023-02-17T09:15:41;15.30;96.60
32400;DHT22;45045;45.440;9.178;2023-02-17T09:18:07;15.40;95.70
32400;DHT22;45045;45.440;9.178;2023-02-17T09:20:33;15.40;97.40
32400;DHT22;45045;45.440;9.178;2023-02-17T09:22:58;15.50;96.10
32400;DHT22;45045;45.440;9.178;2023-02-17T09:25:24;15.40;95.10
32400;DHT22;45045;45.440;9.178;2023-02-17T09:27:50;15.00;96.00
32400;DHT22;45045;45.440;9.178;2023-02-17T09:30:16;15.00;96.40
32400;DHT22;45045;45.440;9.178;2023-02-17T09:32:42;15.20;96.30
32400;DHT22;45045;45.440;9.178;2023-02-17T09:35:11;15.20;96.40
32400;DHT22;45045;45.440;9.178;2023-02-17T09:37:37;15.10;97.00
32400;DHT22;45045;45.440;9.178;2023-02-17T09:40:03;15.00;97.00
32400;DHT22;45045;45.440;9.178;2023-02-17T09:42:31;15.20;97.20
32400;DHT22;45045;45.440;9.178;2023-02-17T09:45:04;15.40;98.20
32400;DHT22;45045;45.440;9.178;2023-02-17T09:47:37;15.70;96.20
32400;DHT22;45045;45.440;9.178;2023-02-17T09:50:13;15.80;95.70
32400;DHT22;45045;45.440;9.178;2023-02-17T09:52:49;16.10;97.20
32400;DHT22;45045;45.440;9.178;2023-02-17T09:55:47;16.50;96.20
32400;DHT22;45045;45.440;9.178;2023-02-17T10:01:01;16.90;95.10
32400;DHT22;45045;45.440;9.178;2023-02-17T10:03:35;16.90;93.50
32400;DHT22;45045;45.440;9.178;2023-02-17T10:08:39;16.60;92.30
32400;DHT22;45045;45.440;9.178;2023-02-17T10:13:56;16.40;93.40
32400;DHT22;45045;45.440;9.178;2023-02-17T10:16:34;16.40;93.60
32400;DHT22;45045;45.440;9.178;2023-02-17T10:19:15;16.50;93.30
32400;DHT22;45045;45.440;9.178;2023-02-17T10:21:54;16.70;93.10
32400;DHT22;45045;45.440;9.178;2023-02-17T10:24:22;16.70;92.20
32400;DHT22;45045;45.440;9.178;2023-02-17T10:26:55;16.60;92.60
32400;DHT22;45045;45.440;9.178;2023-02-17T10:32:26;16.80;92.70
32400;DHT22;45045;45.440;9.178;2023-02-17T10:35:17;17.00;91.90
32400;DHT22;45045;45.440;9.178;2023-02-17T10:37:52;17.20;92.10
32400;DHT22;45045;45.440;9.178;2023-02-17T10:40:22;17.20;91.20
32400;DHT22;45045;45.440;9.178;2023-02-17T10:42:50;17.00;91.60
32400;DHT22;45045;45.440;9.178;2023-02-17T10:45:32;16.90;91.50
32400;DHT22;45045;45.440;9.178;2023-02-17T10:48:04;16.80;92.40
32400;DHT22;45045;45.440;9.178;2023-02-17T10:50:31;16.90;92.50
32400;DHT22;45045;45.440;9.178;2023-02-17T10:52:57;17.50;91.80
32400;DHT22;45045;45.440;9.178;2023-02-17T10:55:40;18.10;90.70
32400;DHT22;45045;45.440;9.178;2023-02-17T10:58:29;18.70;90.20
32400;DHT22;45045;45.440;9.178;2023-02-17T11:00:57;19.10;86.40
32400;DHT22;45045;45.440;9.178;2023-02-17T11:03:26;19.20;85.80
32400;DHT22;45045;45.440;9.178;2023-02-17T11:05:57;19.50;84.00
32400;DHT22;45045;45.440;9.178;2023-02-17T11:08:44;19.80;83.20
32400;DHT22;45045;45.440;9.178;2023-02-17T11:11:22;20.30;80.90
32400;DHT22;45045;45.440;9.178;2023-02-17T11:16:32;20.70;77.30
32400;DHT22;45045;45.440;9.178;2023-02-17T11:18:58;20.80;76.80
32400;DHT22;45045;45.440;9.178;2023-02-17T11:21:27;20.80;77.90
32400;DHT22;45045;45.440;9.178;2023-02-17T11:23:54;21.00;77.10
32400;DHT22;45045;45.440;9.178;2023-02-17T11:26:23;21.40;73.90
32400;DHT22;45045;45.440;9.178;2023-02-17T11:28:49;21.60;73.30
32400;DHT22;45045;45.440;9.178;2023-02-17T11:31:29;21.90;71.80
32400;DHT22;45045;45.440;9.178;2023-02-17T11:33:55;21.70;70.70
32400;DHT22;45045;45.440;9.178;2023-02-17T11:36:28;21.40;71.00
32400;DHT22;45045;45.440;9.178;2023-02-17T11:38:54;21.80;72.40
32400;DHT22;45045;45.440;9.178;2023-02-17T11:41:20;22.30;69.50
32400;DHT22;45045;45.440;9.178;2023-02-17T11:43:57;22.50;69.70
32400;DHT22;45045;45.440;9.178;2023-02-17T11:49:02;22.60;66.50
32400;DHT22;45045;45.440;9.178;2023-02-17T11:52:05;22.90;66.40
32400;DHT22;45045;45.440;9.178;2023-02-17T11:57:37;23.10;63.40
32400;DHT22;45045;45.440;9.178;2023-02-17T12:00:20;23.20;62.40
32400;DHT22;45045;45.440;9.178;2023-02-17T12:05:52;22.30;64.00
32400;DHT22;45045;45.440;9.178;2023-02-17T12:08:26;22.10;65.70
32400;DHT22;45045;45.440;9.178;2023-02-17T12:11:32;22.00;68.10
32400;DHT22;45045;45.440;9.178;2023-02-17T12:14:25;22.40;65.40
32400;DHT22;45045;45.440;9.178;2023-02-17T12:20:18;23.20;64.30
32400;DHT22;45045;45.440;9.178;2023-02-17T12:23:07;23.20;65.10
32400;DHT22;45045;45.440;9.178;2023-02-17T12:28:40;23.30;62.90
32400;DHT22;45045;45.440;9.178;2023-02-17T12:36:40;23.00;61.90
32400;DHT22;45045;45.440;9.178;2023-02-17T12:39:19;22.80;62.20
32400;DHT22;45045;45.440;9.178;2023-02-17T12:41:54;22.80;62.10
32400;DHT22;45045;45.440;9.178;2023-02-17T12:47:34;22.90;61.60
32400;DHT22;45045;45.440;9.178;2023-02-17T12:53:17;23.10;61.60
32400;DHT22;45045;45.440;9.178;2023-02-17T12:59:02;23.20;60.80
32400;DHT22;45045;45.440;9.178;2023-02-17T13:01:50;23.40;60.30
32400;DHT22;45045;45.440;9.178;2023-02-17T13:04:18;23.00;60.00
32400;DHT22;45045;45.440;9.178;2023-02-17T13:06:51;22.70;60.90
32400;DHT22;45045;45.440;9.178;2023-02-17T13:09:34;22.50;61.10
32400;DHT22;45045;45.440;9.178;2023-02-17T13:14:56;22.70;61.30
32400;DHT22;45045;45.440;9.178;2023-02-17T13:17:28;23.20;60.90
32400;DHT22;45045;45.440;9.178;2023-02-17T13:22:37;23.60;59.60
32400;DHT22;45045;45.440;9.178;2023-02-17T13:25:34;23.60;59.50
32400;DHT22;45045;45.440;9.178;2023-02-17T13:28:36;23.90;57.90
32400;DHT22;45045;45.440;9.178;2023-02-17T13:31:18;24.00;57.30
32400;DHT22;45045;45.440;9.178;2023-02-17T13:33:58;23.90;57.30
32400;DHT22;45045;45.440;9.178;2023-02-17T13:38:57;24.30;57.00
32400;DHT22;45045;45.440;9.178;2023-02-17T13:41:25;24.30;56.50
32400;DHT22;45045;45.440;9.178;2023-02-17T13:44:16;24.40;56.00
32400;DHT22;45045;45.440;9.178;2023-02-17T13:46:43;24.50;55.50
32400;DHT22;45045;45.440;9.178;2023-02-17T13:49:24;24.60;55.60
32400;DHT22;45045;45.440;9.178;2023-02-17T13:52:18;24.50;54.50
32400;DHT22;45045;45.440;9.178;2023-02-17T13:54:58;24.30;54.80
32400;DHT22;45045;45.440;9.178;2023-02-17T13:57:35;24.30;55.20
32400;DHT22;45045;45.440;9.178;2023-02-17T14:00:07;24.10;55.00
32400;DHT22;45045;45.440;9.178;2023-02-17T14:05:47;24.40;55.70
32400;DHT22;45045;45.440;9.178;2023-02-17T14:08:38;24.60;56.20
32400;DHT22;45045;45.440;9.178;2023-02-17T14:11:19;24.70;55.60
32400;DHT22;45045;45.440;9.178;2023-02-17T14:13:47;24.80;54.90
32400;DHT22;45045;45.440;9.178;2023-02-17T14:16:41;24.80;54.60
32400;DHT22;45045;45.440;9.178;2023-02-17T14:19:18;24.90;54.50
32400;DHT22;45045;45.440;9.178;2023-02-17T14:24:56;24.80;55.50
32400;DHT22;45045;45.440;9.178;2023-02-17T14:30:35;24.60;53.80
32400;DHT22;45045;45.440;9.178;2023-02-17T14:36:00;23.60;55.20
32400;DHT22;45045;45.440;9.178;2023-02-17T14:38:34;23.20;55.70
32400;DHT22;45045;45.440;9.178;2023-02-17T14:41:02;22.90;57.00
32400;DHT22;45045;45.440;9.178;2023-02-17T14:43:31;22.90;57.40
32400;DHT22;45045;45.440;9.178;2023-02-17T14:45:57;22.60;57.60
32400;DHT22;45045;45.440;9.178;2023-02-17T14:48:22;22.00;58.60
32400;DHT22;45045;45.440;9.178;2023-02-17T14:50:49;22.00;59.00
32400;DHT22;45045;45.440;9.178;2023-02-17T14:53:33;21.70;59.70
32400;DHT22;45045;45.440;9.178;2023-02-17T14:58:45;22.70;60.60
32400;DHT22;45045;45.440;9.178;2023-02-17T15:01:16;23.00;61.20
32400;DHT22;45045;45.440;9.178;2023-02-17T15:03:42;22.80;57.70
32400;DHT22;45045;45.440;9.178;2023-02-17T15:06:14;22.40;57.70
32400;DHT22;45045;45.440;9.178;2023-02-17T15:08:41;22.20;58.50
32400;DHT22;45045;45.440;9.178;2023-02-17T15:13:42;21.70;59.50
32400;DHT22;45045;45.440;9.178;2023-02-17T15:16:08;22.00;59.70
32400;DHT22;45045;45.440;9.178;2023-02-17T15:18:34;21.60;60.20
32400;DHT22;45045;45.440;9.178;2023-02-17T15:20:59;21.60;60.70
32400;DHT22;45045;45.440;9.178;2023-02-17T15:23:29;21.80;60.80
32400;DHT22;45045;45.440;9.178;2023-02-17T15:25:56;21.70;61.50
32400;DHT22;45045;45.440;9.178;2023-02-17T15:28:21;21.10;61.90
32400;DHT22;45045;45.440;9.178;2023-02-17T15:30:50;20.70;63.40
32400;DHT22;45045;45.440;9.178;2023-02-17T15:33:16;20.50;64.60
32400;DHT22;45045;45.440;9.178;2023-02-17T15:35:42;20.70;64.70
32400;DHT22;45045;45.440;9.178;2023-02-17T15:38:11;21.40;64.40
32400;DHT22;45045;45.440;9.178;2023-02-17T15:40:37;21.30;63.10
32400;DHT22;45045;45.440;9.178;2023-02-17T15:43:04;21.40;63.00
32400;DHT22;45045;45.440;9.178;2023-02-17T15:45:29;21.40;63.30
32400;DHT22;45045;45.440;9.178;2023-02-17T15:48:05;21.40;63.00
32400;DHT22;45045;45.440;9.178;2023-02-17T15:50:31;21.60;63.00
32400;DHT22;45045;45.440;9.178;2023-02-17T15:52:57;21.30;62.80
32400;DHT22;45045;45.440;9.178;2023-02-17T15:55:23;21.30;63.20
32400;DHT22;45045;45.440;9.178;2023-02-17T15:57:54;21.00;63.90
32400;DHT22;45045;45.440;9.178;2023-02-17T16:00:33;20.70;64.60
32400;DHT22;45045;45.440;9.178;2023-02-17T16:02:59;20.80;64.80
32400;DHT22;45045;45.440;9.178;2023-02-17T16:05:28;20.50;65.50
32400;DHT22;45045;45.440;9.178;2023-02-17T16:07:54;20.50;66.10
32400;DHT22;45045;45.440;9.178;2023-02-17T16:10:22;20.60;66.30
32400;DHT22;45045;45.440;9.178;2023-02-17T16:12:50;20.60;66.20
32400;DHT22;45045;45.440;9.178;2023-02-17T16:15:19;20.40;66.90
32400;DHT22;45045;45.440;9.178;2023-02-17T16:17:46;20.40;67.40
32400;DHT22;45045;45.440;9.178;2023-02-17T16:20:21;20.60;68.10
32400;DHT22;45045;45.440;9.178;2023-02-17T16:22:47;20.50;67.70
32400;DHT22;45045;45.440;9.178;2023-02-17T16:25:14;20.40;68.40
32400;DHT22;45045;45.440;9.178;2023-02-17T16:27:44;20.30;69.40
32400;DHT22;45045;45.440;9.178;2023-02-17T16:32:45;20.10;69.50
32400;DHT22;45045;45.440;9.178;2023-02-17T16:35:22;19.90;69.80
32400;DHT22;45045;45.440;9.178;2023-02-17T16:37:55;19.90;70.60
32400;DHT22;45045;45.440;9.178;2023-02-17T16:40:24;19.80;71.70
32400;DHT22;45045;45.440;9.178;2023-02-17T16:42:50;19.70;71.40
32400;DHT22;45045;45.440;9.178;2023-02-17T16:45:17;19.70;71.00
32400;DHT22;45045;45.440;9.178;2023-02-17T16:47:47;19.60;72.20
32400;DHT22;45045;45.440;9.178;2023-02-17T16:50:28;19.50;72.10
32400;DHT22;45045;45.440;9.178;2023-02-17T16:52:58;19.30;72.60
32400;DHT22;45045;45.440;9.178;2023-02-17T16:55:28;19.20;73.10
32400;DHT22;45045;45.440;9.178;2023-02-17T16:57:54;19.10;73.60
32400;DHT22;45045;45.440;9.178;2023-02-17T17:00:22;19.00;74.20
32400;DHT22;45045;45.440;9.178;2023-02-17T17:02:49;18.90;74.80
32400;DHT22;45045;45.440;9.178;2023-02-17T17:05:17;18.80;75.50
32400;DHT22;45045;45.440;9.178;2023-02-17T17:07:43;18.70;75.80
32400;DHT22;45045;45.440;9.178;2023-02-17T17:10:16;18.60;76.50
32400;DHT22;45045;45.440;9.178;2023-02-17T17:12:43;18.60;76.60
32400;DHT22;45045;45.440;9.178;2023-02-17T17:15:09;18.40;76.80
32400;DHT22;45045;45.440;9.178;2023-02-17T17:17:57;18.40;77.30
32400;DHT22;45045;45.440;9.178;2023-02-17T17:20:30;18.40;77.40
32400;DHT22;45045;45.440;9.178;2023-02-17T17:23:15;18.40;77.70
32400;DHT22;45045;45.440;9.178;2023-02-17T17:25:43;18.30;78.40
32400;DHT22;45045;45.440;9.178;2023-02-17T17:28:13;18.30;78.30
32400;DHT22;45045;45.440;9.178;2023-02-17T17:30:39;18.20;78.60